Time;durP1;ratioP1;P1;durP2;ratioP2;P2;SDS_P1;SDS_P2;PMS_P1;PMS_P2;Temp;Humidity;BMP_temperature;BMP_pressure;BME280_temperature;BME280_humidity;BME280_pressure;Samples;Min_cycle;Max_cycle;Signal;HPM_P1;HPM_P2
2022/08/17 00:00:17;;;;;;;5.18;1.20;;;26.00;62.30;;;;;;5014721;28;20036;-76
2022/08/17 00:03:09;;;;;;;5.57;1.20;;;26.00;62.30;;;;;;5013306;28;20084;-75
2022/08/17 00:05:42;;;;;;;2.05;1.10;;;26.00;62.20;;;;;;5013380;28;20030;-75
2022/08/17 00:08:09;;;;;;;4.78;1.35;;;26.00;62.20;;;;;;5014157;28;20030;-75
2022/08/17 00:10:35;;;;;;;3.90;1.20;;;26.00;62.30;;;;;;5013202;28;20033;-75
2022/08/17 00:13:07;;;;;;;4.97;1.20;;;26.00;63.30;;;;;;5013111;28;20014;-75
2022/08/17 00:15:33;;;;;;;5.18;1.10;;;26.00;62.30;;;;;;5013279;28;20538;-75
2022/08/17 00:17:59;;;;;;;7.35;1.70;;;26.00;62.30;;;;;;5012977;28;20048;-76
2022/08/17 00:20:24;;;;;;;4.78;1.55;;;26.00;62.30;;;;;;5014414;28;20399;-75
2022/08/17 00:23:00;;;;;;;3.13;1.48;;;26.00;62.30;;;;;;5012680;28;20567;-76
2022/08/17 00:25:25;;;;;;;2.55;1.25;;;26.00;62.30;;;;;;5013131;28;20080;-75
2022/08/17 00:27:51;;;;;;;2.72;1.20;;;26.00;62.30;;;;;;5013866;28;20057;-75
2022/08/17 00:30:17;;;;;;;4.18;1.42;;;26.00;62.30;;;;;;5023118;28;20046;-76
2022/08/17 00:32:44;;;;;;;4.30;1.42;;;26.00;62.30;;;;;;5033507;28;20053;-76
2022/08/17 00:35:11;;;;;;;9.40;1.52;;;26.00;62.30;;;;;;5032432;28;20021;-75
2022/08/17 00:37:36;;;;;;;2.30;1.35;;;26.00;62.30;;;;;;5028333;28;20026;-75
2022/08/17 00:40:03;;;;;;;3.20;1.48;;;26.00;62.30;;;;;;5012640;28;20037;-75
2022/08/17 00:42:29;;;;;;;2.60;1.42;;;25.90;62.20;;;;;;5012465;28;20026;-75
2022/08/17 00:44:54;;;;;;;3.95;1.10;;;25.90;62.20;;;;;;5013694;28;20048;-75
2022/08/17 00:47:20;;;;;;;5.38;1.90;;;26.00;62.30;;;;;;5013809;28;20088;-75
2022/08/17 00:49:46;;;;;;;4.28;1.20;;;25.90;62.20;;;;;;5013495;28;20100;-75
2022/08/17 00:52:14;;;;;;;2.90;1.40;;;25.90;62.30;;;;;;5013500;28;20044;-75
2022/08/17 00:54:40;;;;;;;2.17;1.30;;;26.00;62.30;;;;;;5012044;28;20048;-75
2022/08/17 00:57:09;;;;;;;3.75;1.42;;;26.00;62.30;;;;;;4996090;28;20052;-75
2022/08/17 00:59:37;;;;;;;4.53;1.25;;;26.00;62.30;;;;;;5012624;28;20053;-75
2022/08/17 01:02:03;;;;;;;3.35;1.40;;;25.90;62.30;;;;;;5012378;28;20014;-75
2022/08/17 01:04:29;;;;;;;4.70;1.65;;;25.90;62.30;;;;;;5013356;28;20040;-75
2022/08/17 01:06:55;;;;;;;3.00;1.30;;;25.90;62.30;;;;;;5011798;28;20022;-75
2022/08/17 01:09:20;;;;;;;3.25;1.50;;;25.90;62.30;;;;;;5012347;28;20037;-75
2022/08/17 01:11:50;;;;;;;2.80;1.10;;;25.90;62.30;;;;;;5012046;28;20022;-75
2022/08/17 01:14:20;;;;;;;3.45;1.13;;;25.90;62.30;;;;;;5012172;28;20503;-75
2022/08/17 01:16:45;;;;;;;3.33;1.45;;;25.90;62.40;;;;;;5013090;28;20022;-75
2022/08/17 01:19:16;;;;;;;1.95;1.27;;;25.90;62.40;;;;;;5011975;28;20507;-75
2022/08/17 01:21:47;;;;;;;2.30;1.58;;;25.90;62.40;;;;;;5011671;28;20022;-75
2022/08/17 01:24:13;;;;;;;2.83;1.30;;;25.90;62.50;;;;;;5012097;28;20037;-75
2022/08/17 01:26:39;;;;;;;3.53;1.30;;;25.90;62.40;;;;;;5011691;28;20112;-75
2022/08/17 01:29:05;;;;;;;1.55;1.10;;;25.90;62.50;;;;;;5012268;28;20030;-75
2022/08/17 01:31:36;;;;;;;1.80;1.33;;;25.90;62.50;;;;;;5031487;28;20053;-75
2022/08/17 01:34:07;;;;;;;3.22;1.20;;;25.90;62.50;;;;;;5031355;28;20431;-75
2022/08/17 01:36:33;;;;;;;1.90;1.27;;;25.90;62.40;;;;;;5031266;28;20014;-75
2022/08/17 01:38:59;;;;;;;2.55;1.38;;;25.90;62.50;;;;;;5016008;28;20057;-75
2022/08/17 01:41:25;;;;;;;2.05;1.25;;;25.90;62.50;;;;;;5012904;28;20127;-75
2022/08/17 01:43:56;;;;;;;2.20;1.40;;;25.90;62.40;;;;;;5011375;28;20041;-75
2022/08/17 01:46:25;;;;;;;5.10;1.20;;;25.90;62.40;;;;;;5012973;28;20037;-75
2022/08/17 01:48:51;;;;;;;2.00;1.30;;;25.90;62.40;;;;;;5011557;28;20026;-75
2022/08/17 01:51:17;;;;;;;2.40;1.45;;;25.90;62.50;;;;;;5012478;28;20037;-75
2022/08/17 01:53:48;;;;;;;1.65;1.38;;;25.90;62.50;;;;;;5011640;28;20030;-75
2022/08/17 01:56:16;;;;;;;1.13;1.00;;;25.90;62.60;;;;;;5011560;28;20519;-75
2022/08/17 01:58:42;;;;;;;2.88;1.30;;;25.90;62.60;;;;;;5011251;28;20527;-75
2022/08/17 02:01:08;;;;;;;6.57;1.30;;;25.90;62.60;;;;;;5012631;28;20499;-75
2022/08/17 02:03:34;;;;;;;2.10;1.08;;;25.90;62.50;;;;;;5011393;28;20112;-75
2022/08/17 02:06:00;;;;;;;3.00;1.25;;;25.90;62.60;;;;;;5010321;28;20060;-75
2022/08/17 02:08:26;;;;;;;1.95;1.25;;;25.90;62.60;;;;;;5011399;28;20038;-75
2022/08/17 02:10:52;;;;;;;3.67;1.30;;;25.90;62.60;;;;;;5011341;28;20018;-75
2022/08/17 02:13:18;;;;;;;2.75;1.65;;;25.90;62.60;;;;;;5011456;28;20096;-75
2022/08/17 02:15:44;;;;;;;8.40;1.70;;;25.90;62.60;;;;;;5011275;28;20485;-75
2022/08/17 02:18:09;;;;;;;1.45;1.27;;;25.90;62.60;;;;;;5011309;28;20033;-75
2022/08/17 02:20:37;;;;;;;1.67;1.10;;;25.90;62.60;;;;;;5011113;28;20029;-75
2022/08/17 02:23:03;;;;;;;5.90;1.50;;;25.90;62.60;;;;;;5011173;28;20539;-75
2022/08/17 02:25:29;;;;;;;1.73;1.13;;;25.90;62.70;;;;;;5011332;28;20025;-75
2022/08/17 02:27:55;;;;;;;4.43;1.50;;;25.90;62.70;;;;;;5010899;28;20033;-75
2022/08/17 02:30:20;;;;;;;2.28;1.30;;;25.90;62.70;;;;;;5022032;28;20037;-76
2022/08/17 02:32:46;;;;;;;2.10;1.45;;;25.90;62.70;;;;;;5030883;28;20049;-75
2022/08/17 02:35:12;;;;;;;3.17;1.30;;;25.90;62.70;;;;;;5030493;28;20017;-75
2022/08/17 02:37:38;;;;;;;3.25;1.48;;;25.90;62.70;;;;;;5026813;28;20105;-76
2022/08/17 02:40:04;;;;;;;3.67;1.38;;;25.90;62.80;;;;;;5010962;28;20491;-75
2022/08/17 02:42:32;;;;;;;3.03;1.27;;;25.80;62.70;;;;;;5011188;28;20054;-75
2022/08/17 02:45:02;;;;;;;1.63;1.13;;;25.90;62.80;;;;;;5011099;28;20029;-75
2022/08/17 02:47:27;;;;;;;2.80;1.30;;;25.80;62.70;;;;;;5010715;28;20018;-76
2022/08/17 02:49:53;;;;;;;3.70;1.38;;;25.90;62.70;;;;;;5011040;28;20041;-76
2022/08/17 02:52:19;;;;;;;4.65;1.15;;;25.90;62.80;;;;;;5011006;28;20492;-75
2022/08/17 02:54:45;;;;;;;3.38;1.50;;;25.90;62.80;;;;;;5012340;28;20022;-75
2022/08/17 02:57:10;;;;;;;2.03;1.52;;;25.90;62.70;;;;;;5012158;28;20101;-75
2022/08/17 02:59:39;;;;;;;4.78;1.52;;;25.80;62.70;;;;;;5011031;28;20022;-75
2022/08/17 03:02:08;;;;;;;2.47;1.40;;;25.80;62.70;;;;;;5011795;28;20109;-75
2022/08/17 03:04:34;;;;;;;1.60;1.33;;;25.80;62.70;;;;;;5010924;28;20032;-75
2022/08/17 03:07:00;;;;;;;1.65;1.45;;;25.80;62.70;;;;;;5011768;28;20109;-75
2022/08/17 03:09:25;;;;;;;1.80;1.45;;;25.80;63.70;;;;;;5011960;28;20036;-75
2022/08/17 03:11:51;;;;;;;1.40;1.25;;;25.80;62.70;;;;;;5011963;28;20029;-75
2022/08/17 03:14:17;;;;;;;3.47;1.33;;;25.90;62.80;;;;;;5012058;28;20026;-75
2022/08/17 03:16:43;;;;;;;2.67;1.40;;;25.90;62.80;;;;;;5012162;28;20519;-75
2022/08/17 03:19:09;;;;;;;2.13;1.50;;;25.80;62.60;;;;;;5014234;28;20030;-75
2022/08/17 03:21:34;;;;;;;3.30;1.35;;;25.80;62.70;;;;;;4997915;28;20037;-75
2022/08/17 03:24:00;;;;;;;2.33;1.30;;;25.80;62.70;;;;;;5015123;28;20030;-75
2022/08/17 03:26:26;;;;;;;1.45;1.35;;;25.80;62.70;;;;;;5015123;28;20033;-75
2022/08/17 03:28:52;;;;;;;3.45;1.30;;;25.90;62.70;;;;;;5013982;28;20033;-75
2022/08/17 03:31:19;;;;;;;5.82;1.40;;;25.90;62.70;;;;;;5032269;28;20100;-75
2022/08/17 03:33:45;;;;;;;1.80;1.45;;;25.80;62.70;;;;;;5033700;28;20017;-75
2022/08/17 03:36:10;;;;;;;2.47;1.30;;;25.80;62.70;;;;;;5035027;28;20025;-75
2022/08/17 03:38:36;;;;;;;2.53;1.60;;;25.80;62.60;;;;;;5022568;28;20032;-75
2022/08/17 03:41:03;;;;;;;3.28;1.40;;;25.80;62.60;;;;;;5014806;28;20030;-75
2022/08/17 03:43:30;;;;;;;2.85;1.20;;;25.80;62.60;;;;;;5013963;28;20018;-75
2022/08/17 03:56:59;;;;;;;1.65;1.38;;;25.80;62.70;;;;;;5014952;28;20036;-75
2022/08/17 03:59:24;;;;;;;2.15;0.98;;;25.80;62.60;;;;;;5013586;28;20032;-76
2022/08/17 04:01:52;;;;;;;1.98;1.20;;;25.80;62.70;;;;;;5014386;28;20034;-75
2022/08/17 04:04:17;;;;;;;2.28;1.27;;;25.80;62.70;;;;;;4996982;28;20384;-75
2022/08/17 04:06:43;;;;;;;1.55;1.30;;;25.80;63.70;;;;;;5013293;28;20033;-75
2022/08/17 04:09:09;;;;;;;2.85;1.40;;;25.80;62.60;;;;;;5014308;28;20018;-75
2022/08/17 04:11:35;;;;;;;1.85;1.10;;;25.80;62.60;;;;;;5013241;28;20574;-75
2022/08/17 04:14:01;;;;;;;2.22;1.30;;;25.80;62.70;;;;;;5013232;28;20022;-75
2022/08/17 04:16:27;;;;;;;1.30;1.20;;;25.80;62.70;;;;;;5013009;28;20018;-75
2022/08/17 04:18:52;;;;;;;2.05;1.17;;;25.80;62.70;;;;;;5013200;28;20032;-75
2022/08/17 04:21:18;;;;;;;1.75;1.30;;;25.80;63.70;;;;;;5014108;28;20041;-75
2022/08/17 04:23:44;;;;;;;1.17;1.08;;;25.80;62.70;;;;;;5013103;28;20030;-75
2022/08/17 04:26:10;;;;;;;1.90;1.38;;;25.80;62.60;;;;;;5012918;28;20029;-75
2022/08/17 04:28:35;;;;;;;2.15;1.63;;;25.70;62.60;;;;;;5012141;28;20033;-75
2022/08/17 04:31:01;;;;;;;1.17;1.08;;;25.80;62.70;;;;;;5029962;28;20049;-75
2022/08/17 04:33:28;;;;;;;1.65;1.10;;;25.70;62.60;;;;;;5033867;28;20049;-75
2022/08/17 04:36:04;;;;;;;1.55;1.45;;;25.80;62.70;;;;;;5032532;28;20535;-75
2022/08/17 04:38:31;;;;;;;2.65;1.15;;;25.80;62.70;;;;;;5021301;28;20029;-75
2022/08/17 04:43:42;;;;;;;1.73;1.30;;;25.70;62.70;;;;;;5012690;28;20045;-75
2022/08/17 04:46:10;;;;;;;1.30;1.20;;;25.70;62.70;;;;;;5012586;28;20487;-75
2022/08/17 04:48:38;;;;;;;2.95;1.45;;;25.70;62.70;;;;;;5013731;28;20431;-75
2022/08/17 04:51:30;;;;;;;2.33;1.13;;;25.80;62.80;;;;;;5012381;28;20120;-76
2022/08/17 04:54:01;;;;;;;1.30;1.20;;;25.70;62.70;;;;;;5012536;28;20038;-76
2022/08/17 04:56:27;;;;;;;2.25;1.48;;;25.70;62.70;;;;;;5012314;28;20053;-75
2022/08/17 04:58:55;;;;;;;2.85;1.10;;;25.70;62.70;;;;;;5012183;28;20022;-75
2022/08/17 05:01:22;;;;;;;2.22;1.27;;;25.70;62.70;;;;;;5012461;28;20108;-76
2022/08/17 05:03:47;;;;;;;2.05;1.13;;;25.70;62.70;;;;;;5012300;28;20029;-76
2022/08/17 05:06:13;;;;;;;1.40;1.17;;;25.70;62.70;;;;;;5013194;28;20034;-76
2022/08/17 05:08:39;;;;;;;2.35;1.40;;;25.70;62.70;;;;;;5012068;28;20534;-75
2022/08/17 05:11:04;;;;;;;1.10;1.00;;;25.70;62.70;;;;;;5013263;28;20073;-75
2022/08/17 05:13:30;;;;;;;1.38;1.27;;;25.70;62.80;;;;;;5013156;28;20056;-76
2022/08/17 05:16:00;;;;;;;1.67;1.30;;;25.70;62.80;;;;;;5013259;28;20056;-75
2022/08/17 05:18:26;;;;;;;1.40;1.25;;;25.70;62.70;;;;;;5012073;28;20036;-76
2022/08/17 05:20:52;;;;;;;2.97;1.20;;;25.70;62.80;;;;;;5012044;28;20030;-76
2022/08/17 05:23:18;;;;;;;1.35;1.13;;;25.70;62.80;;;;;;5013063;28;20026;-75
2022/08/17 05:25:46;;;;;;;1.52;0.98;;;25.70;62.70;;;;;;5013134;28;20033;-75
2022/08/17 05:28:11;;;;;;;3.45;1.30;;;25.70;62.90;;;;;;5011514;28;20022;-76
2022/08/17 05:30:38;;;;;;;3.88;1.02;;;25.70;62.80;;;;;;5026094;28;20095;-75
2022/08/17 05:33:06;;;;;;;1.20;1.00;;;25.70;62.80;;;;;;5031485;28;20022;-75
2022/08/17 05:35:34;;;;;;;2.33;1.40;;;25.70;62.80;;;;;;5031736;28;20052;-75
2022/08/17 05:38:00;;;;;;;7.32;1.17;;;25.70;62.80;;;;;;5024365;28;20022;-75
2022/08/17 05:40:26;;;;;;;5.10;1.20;;;25.70;62.80;;;;;;5010691;28;20030;-75
2022/08/17 05:43:03;;;;;;;7.30;1.05;;;25.70;62.80;;;;;;5012861;28;20033;-75
2022/08/17 05:45:28;;;;;;;2.33;0.95;;;25.70;62.80;;;;;;5011675;28;20072;-76
2022/08/17 05:47:54;;;;;;;3.00;1.10;;;25.70;62.80;;;;;;5025713;28;20057;-75
2022/08/17 05:50:30;;;;;;;2.55;1.40;;;25.70;62.80;;;;;;5031066;28;20045;-74
2022/08/17 05:53:10;;;;;;;2.33;1.00;;;25.70;61.40;;;;;;5031374;28;20021;-76
2022/08/17 05:56:04;;;;;;;1.73;1.20;;;25.70;60.90;;;;;;5033034;28;20537;-75
2022/08/17 05:58:37;;;;;;;1.33;1.20;;;25.60;60.90;;;;;;5031595;28;20025;-76
2022/08/17 06:01:16;;;;;;;1.95;1.13;;;25.60;60.90;;;;;;5015031;28;20456;-76
2022/08/17 06:03:45;;;;;;;1.20;1.05;;;25.60;60.90;;;;;;5031555;28;20036;-75
2022/08/17 06:06:43;;;;;;;2.22;0.90;;;25.60;61.30;;;;;;5029321;28;20037;-75
2022/08/17 06:09:30;;;;;;;2.17;1.30;;;25.50;60.90;;;;;;5031201;28;20029;-75
2022/08/17 06:12:16;;;;;;;0.90;0.90;;;25.50;60.90;;;;;;5030823;28;20026;-75
2022/08/17 06:15:23;;;;;;;2.15;0.98;;;25.50;60.90;;;;;;5010144;28;20176;-75
2022/08/17 06:17:53;;;;;;;1.55;1.10;;;25.50;60.90;;;;;;5010501;28;20088;-75
2022/08/17 06:20:19;;;;;;;1.80;0.98;;;25.50;60.90;;;;;;4978310;28;20630;-75
2022/08/17 06:22:49;;;;;;;0.90;0.90;;;25.50;60.90;;;;;;4976821;28;20033;-74
2022/08/17 06:25:33;;;;;;;2.53;1.08;;;25.50;60.80;;;;;;5009912;28;20033;-74
2022/08/17 06:28:03;;;;;;;1.98;1.35;;;25.50;60.90;;;;;;4995776;28;20038;-74
2022/08/17 06:30:33;;;;;;;1.38;0.98;;;25.50;60.90;;;;;;5005568;28;20037;-74
2022/08/17 06:33:05;;;;;;;1.27;1.00;;;25.50;60.80;;;;;;5013496;28;20117;-74
2022/08/17 06:35:38;;;;;;;1.33;1.00;;;25.40;60.70;;;;;;5013714;28;20041;-74
2022/08/17 06:38:48;;;;;;;2.65;1.10;;;25.40;60.70;;;;;;4986286;28;20057;-74
2022/08/17 06:41:21;;;;;;;1.17;0.93;;;25.40;60.70;;;;;;4990312;28;20026;-74
2022/08/17 06:43:56;;;;;;;3.08;1.10;;;25.40;60.80;;;;;;4990424;28;20113;-75
2022/08/17 06:46:37;;;;;;;1.67;1.05;;;25.40;60.80;;;;;;4958765;28;20065;-74
2022/08/17 06:49:06;;;;;;;7.07;2.42;;;25.40;60.80;;;;;;4990500;28;20030;-77
2022/08/17 06:51:34;;;;;;;27.33;5.82;;;25.40;60.90;;;;;;5000311;28;20034;-76
2022/08/17 06:54:44;;;;;;;21.33;5.05;;;25.40;61.30;;;;;;5013830;28;20025;-76
2022/08/17 06:57:21;;;;;;;15.65;3.65;;;25.40;61.50;;;;;;5013486;28;20022;-76
2022/08/17 06:59:50;;;;;;;15.23;3.47;;;25.30;61.50;;;;;;5027527;28;20133;-76
2022/08/17 07:02:30;;;;;;;15.52;3.85;;;25.40;61.50;;;;;;5013089;28;20030;-76
2022/08/17 07:04:57;;;;;;;13.25;3.75;;;25.30;61.40;;;;;;5012740;28;20420;-76
2022/08/17 07:10:07;;;;;;;16.50;4.30;;;25.40;61.50;;;;;;5002615;28;20082;-76
2022/08/17 07:12:37;;;;;;;15.07;4.15;;;25.40;61.50;;;;;;4994696;28;20021;-76
2022/08/17 07:15:12;;;;;;;14.05;3.88;;;25.40;61.50;;;;;;4993992;28;20038;-76
2022/08/17 07:17:38;;;;;;;17.27;4.18;;;25.30;61.50;;;;;;4983274;28;20595;-76
2022/08/17 07:20:07;;;;;;;12.85;3.55;;;25.30;61.50;;;;;;5013030;28;20044;-76
2022/08/17 07:22:45;;;;;;;10.40;4.03;;;25.30;61.50;;;;;;5029627;28;20057;-76
2022/08/17 07:25:12;;;;;;;13.05;3.75;;;25.30;61.50;;;;;;5011962;28;20468;-76
2022/08/17 07:27:39;;;;;;;10.93;3.50;;;25.30;61.50;;;;;;5023864;28;20412;-76
2022/08/17 07:30:23;;;;;;;17.65;4.65;;;25.30;61.50;;;;;;5023898;28;20018;-76
2022/08/17 07:33:07;;;;;;;12.25;4.32;;;25.30;61.40;;;;;;5035036;28;20032;-76
2022/08/17 07:35:43;;;;;;;12.18;4.13;;;25.30;61.40;;;;;;5033764;28;20065;-76
2022/08/17 07:38:23;;;;;;;8.93;3.92;;;25.30;61.50;;;;;;5033666;28;20017;-77
2022/08/17 07:41:01;;;;;;;12.88;3.70;;;25.30;61.50;;;;;;5033651;28;20030;-76
2022/08/17 07:43:39;;;;;;;13.38;3.85;;;25.30;61.50;;;;;;5034810;28;20113;-76
2022/08/17 07:49:15;;;;;;;10.38;3.72;;;25.30;61.50;;;;;;5033555;28;20117;-76
2022/08/17 07:51:44;;;;;;;9.75;3.45;;;25.30;61.30;;;;;;5034587;28;20021;-76
2022/08/17 07:54:24;;;;;;;9.50;3.60;;;25.30;61.30;;;;;;5034487;28;20479;-76
2022/08/17 07:56:58;;;;;;;12.13;4.47;;;25.20;61.30;;;;;;5034787;28;20026;-76
2022/08/17 07:59:35;;;;;;;9.52;4.18;;;25.20;61.30;;;;;;5034343;28;20033;-76
2022/08/17 08:02:15;;;;;;;10.13;3.63;;;25.20;61.20;;;;;;5016584;28;20030;-76
2022/08/17 08:04:59;;;;;;;9.57;3.20;;;25.20;61.20;;;;;;5033753;28;20033;-76
2022/08/17 08:07:30;;;;;;;10.27;3.40;;;25.20;61.30;;;;;;5034164;28;20033;-76
2022/08/17 08:10:05;;;;;;;8.63;3.08;;;25.20;61.30;;;;;;5016972;28;20033;-76
2022/08/17 08:12:44;;;;;;;8.13;3.60;;;25.20;61.20;;;;;;5034059;28;20546;-76
2022/08/17 08:15:18;;;;;;;9.70;3.35;;;25.20;61.20;;;;;;5034193;28;20041;-76
2022/08/17 08:17:52;;;;;;;7.85;3.50;;;25.20;61.20;;;;;;5022267;28;20022;-76
2022/08/17 08:20:25;;;;;;;9.88;3.50;;;25.20;61.20;;;;;;5013035;28;20075;-76
2022/08/17 08:23:09;;;;;;;7.30;3.22;;;25.10;61.20;;;;;;5012981;28;20025;-76
2022/08/17 08:25:51;;;;;;;7.55;3.38;;;25.20;61.20;;;;;;5013122;28;20500;-76
2022/08/17 08:28:34;;;;;;;9.70;3.33;;;25.20;61.30;;;;;;5012927;28;20120;-76
2022/08/17 08:31:11;;;;;;;11.50;3.75;;;25.10;61.20;;;;;;5014068;28;20048;-76
2022/08/17 08:34:07;;;;;;;11.05;3.60;;;25.10;61.10;;;;;;5012828;28;20476;-76
2022/08/17 08:37:14;;;;;;;9.60;3.20;;;25.10;61.20;;;;;;5012721;28;20018;-76
2022/08/17 08:39:46;;;;;;;7.28;3.20;;;25.10;61.20;;;;;;5012732;28;20123;-76
2022/08/17 08:42:18;;;;;;;10.50;4.25;;;25.10;61.10;;;;;;5012833;28;20435;-76
2022/08/17 08:44:52;;;;;;;8.10;3.20;;;25.10;61.20;;;;;;5013990;28;20494;-76
2022/08/17 08:47:43;;;;;;;9.75;3.50;;;25.10;61.20;;;;;;5013673;28;20023;-76
2022/08/17 08:50:36;;;;;;;10.63;3.30;;;25.10;61.20;;;;;;5013642;28;20108;-76
2022/08/17 08:53:02;;;;;;;;;;;25.10;61.20;;;;;;5013140;28;20022;-76
2022/08/17 08:55:36;;;;;;;7.78;3.40;;;25.10;61.20;;;;;;5013566;28;20363;-76
2022/08/17 08:58:07;;;;;;;10.45;3.45;;;25.10;61.10;;;;;;5013484;28;20092;-76
2022/08/17 09:00:34;;;;;;;7.07;3.30;;;25.10;61.20;;;;;;5012346;28;20017;-76
2022/08/17 09:03:13;;;;;;;8.05;2.88;;;25.10;61.20;;;;;;5012473;28;20104;-76
2022/08/17 09:06:07;;;;;;;11.13;3.50;;;25.10;61.20;;;;;;5011912;28;20018;-76
2022/08/17 09:08:40;;;;;;;7.70;2.90;;;25.10;61.20;;;;;;5013257;28;20026;-76
2022/08/17 09:11:36;;;;;;;9.13;3.33;;;25.10;61.10;;;;;;5031621;28;20026;-76
2022/08/17 09:14:50;;;;;;;7.47;3.25;;;25.10;62.20;;;;;;5031672;28;20154;-76
2022/08/17 09:17:23;;;;;;;10.43;3.75;;;25.10;61.10;;;;;;5020564;28;20030;-76
2022/08/17 09:19:51;;;;;;;;;;;25.10;61.10;;;;;;5012194;28;20025;-76
2022/08/17 09:22:36;;;;;;;7.65;2.92;;;25.10;61.10;;;;;;5013601;28;20358;-76
2022/08/17 09:25:06;;;;;;;8.63;3.10;;;25.10;61.10;;;;;;5011897;28;20018;-76
2022/08/17 09:27:50;;;;;;;7.47;3.00;;;25.10;61.10;;;;;;5012915;28;20109;-76
2022/08/17 09:30:17;;;;;;;7.78;2.80;;;25.10;61.00;;;;;;5011942;28;20045;-76
2022/08/17 09:32:50;;;;;;;7.50;3.10;;;25.10;61.10;;;;;;5011935;28;20112;-76
2022/08/17 09:35:33;;;;;;;6.07;2.65;;;25.10;61.00;;;;;;5011610;28;20022;-76
2022/08/17 09:38:04;;;;;;;7.35;3.00;;;25.10;61.00;;;;;;5011794;28;20034;-76
2022/08/17 09:40:52;;;;;;;5.57;2.92;;;25.00;62.10;;;;;;5011721;28;20365;-76
2022/08/17 09:43:36;;;;;;;6.07;3.10;;;25.00;61.00;;;;;;5012521;28;20041;-76
2022/08/17 09:46:07;;;;;;;6.78;2.85;;;25.00;61.00;;;;;;5011801;28;20026;-76
2022/08/17 09:49:31;;;;;;;5.72;3.35;;;25.00;61.00;;;;;;5011281;28;20026;-76
2022/08/17 09:52:14;;;;;;;5.13;2.85;;;25.00;61.00;;;;;;4952169;29;20625;-77
2022/08/17 09:54:40;;;;;;;6.22;3.28;;;25.00;61.00;;;;;;4938320;29;20572;-76
2022/08/17 09:57:23;;;;;;;8.00;2.92;;;25.00;61.00;;;;;;4936256;29;20062;-77
2022/08/17 09:59:49;;;;;;;6.20;2.97;;;25.00;61.10;;;;;;4952120;29;20054;-76
2022/08/17 10:02:50;;;;;;;7.75;2.97;;;25.00;61.10;;;;;;4952412;29;20514;-76
2022/08/17 10:05:21;;;;;;;9.32;2.85;;;25.00;61.10;;;;;;4936510;29;20082;-77
2022/08/17 10:07:54;;;;;;;6.13;2.40;;;25.00;61.10;;;;;;4951914;29;20510;-77
2022/08/17 10:10:30;;;;;;;5.30;2.55;;;25.00;62.10;;;;;;4949623;28;20185;-76
2022/08/17 10:13:01;;;;;;;7.30;2.83;;;25.00;61.00;;;;;;4955895;28;20033;-76
2022/08/17 10:15:59;;;;;;;5.40;2.92;;;25.00;61.10;;;;;;4955804;28;20529;-76
2022/08/17 10:18:47;;;;;;;3.75;2.40;;;25.00;61.10;;;;;;4913550;29;20040;-76
2022/08/17 10:26:50;;;;;;;8.80;3.55;;;25.00;61.10;;;;;;4915749;29;20046;-76
2022/08/17 10:29:26;;;;;;;3.42;2.42;;;25.00;61.10;;;;;;4886363;29;20033;-76
2022/08/17 10:31:59;;;;;;;4.55;2.60;;;24.90;61.00;;;;;;4901839;29;20060;-77
2022/08/17 10:34:43;;;;;;;3.55;2.35;;;25.00;61.10;;;;;;4902693;29;20020;-76
2022/08/17 10:37:18;;;;;;;4.90;2.72;;;25.00;61.10;;;;;;4917770;29;20036;-76
2022/08/17 10:40:23;;;;;;;4.75;2.40;;;25.00;61.10;;;;;;4917560;29;20029;-76
2022/08/17 10:43:03;;;;;;;5.00;2.60;;;25.00;61.10;;;;;;4898382;29;20033;-77
2022/08/17 10:45:35;;;;;;;7.55;2.90;;;25.00;61.10;;;;;;4883072;29;20048;-77
2022/08/17 10:48:20;;;;;;;;;;;25.00;61.10;;;;;;4883148;29;20048;-76
2022/08/17 10:50:58;;;;;;;3.05;2.33;;;24.90;61.00;;;;;;4882795;29;19911;-77
2022/08/17 10:53:30;;;;;;;6.03;2.40;;;24.90;61.00;;;;;;4882725;29;20041;-77
2022/08/17 10:56:10;;;;;;;6.10;2.70;;;25.00;61.10;;;;;;4989755;28;20034;-76
2022/08/17 10:58:37;;;;;;;4.78;2.53;;;24.90;61.00;;;;;;4994167;28;20038;-76
2022/08/17 11:01:03;;;;;;;5.50;2.38;;;24.90;61.00;;;;;;4977571;28;20030;-76
2022/08/17 11:03:31;;;;;;;4.88;2.60;;;25.00;61.10;;;;;;4994084;28;20101;-76
2022/08/17 11:06:11;;;;;;;3.03;2.13;;;24.90;61.00;;;;;;4978005;28;20058;-76
2022/08/17 11:08:42;;;;;;;5.05;2.40;;;24.90;61.10;;;;;;4977933;28;20042;-76
2022/08/17 11:11:14;;;;;;;4.43;2.20;;;24.90;61.10;;;;;;4994068;28;20045;-76
2022/08/17 11:13:51;;;;;;;5.45;2.33;;;24.90;61.10;;;;;;4993976;28;20092;-77
2022/08/17 11:16:28;;;;;;;4.90;2.40;;;24.90;61.10;;;;;;4993729;28;20085;-76
2022/08/17 11:19:11;;;;;;;5.00;2.50;;;24.90;61.00;;;;;;5000181;28;20412;-77
2022/08/17 11:21:56;;;;;;;3.10;2.42;;;24.90;61.10;;;;;;5014276;28;20030;-76
2022/08/17 11:24:31;;;;;;;4.80;2.60;;;24.90;61.10;;;;;;5015339;28;20033;-76
2022/08/17 11:27:04;;;;;;;3.20;2.30;;;24.90;61.10;;;;;;5015271;28;20476;-76
2022/08/17 11:29:36;;;;;;;2.58;2.20;;;24.90;61.10;;;;;;5014980;28;20037;-77
2022/08/17 11:32:12;;;;;;;3.45;2.20;;;24.90;61.10;;;;;;5013821;28;20137;-77
2022/08/17 11:34:40;;;;;;;3.22;1.85;;;24.90;61.10;;;;;;5013996;28;20105;-76
2022/08/17 11:37:24;;;;;;;4.50;2.28;;;24.90;61.10;;;;;;5013882;28;20101;-77
2022/08/17 11:40:12;;;;;;;2.88;2.13;;;24.90;61.20;;;;;;5015017;28;20037;-76
2022/08/17 11:42:54;;;;;;;4.25;2.00;;;24.90;61.10;;;;;;5014056;28;20017;-76
2022/08/17 11:45:36;;;;;;;2.97;2.38;;;24.90;61.20;;;;;;5013903;28;20030;-76
2022/08/17 11:51:32;;;;;;;4.82;2.55;;;24.90;61.30;;;;;;5015052;28;20559;-76
2022/08/17 11:53:59;;;;;;;2.58;2.20;;;24.90;61.20;;;;;;5014690;28;20021;-77
2022/08/17 11:56:35;;;;;;;4.32;2.35;;;24.90;61.30;;;;;;5013580;28;20084;-76
2022/08/17 11:59:00;;;;;;;3.78;2.33;;;24.90;61.20;;;;;;5013286;28;20057;-77
2022/08/17 12:01:28;;;;;;;3.17;2.10;;;24.90;61.20;;;;;;5014739;28;20061;-76
2022/08/17 12:04:12;;;;;;;3.95;2.20;;;24.90;61.30;;;;;;5014419;28;20028;-76
2022/08/17 12:06:44;;;;;;;4.05;2.10;;;24.90;61.30;;;;;;5013389;28;20026;-76
2022/08/17 12:09:18;;;;;;;3.20;2.20;;;24.90;61.30;;;;;;5016803;28;20220;-76
2022/08/17 12:11:50;;;;;;;2.55;2.17;;;24.90;61.30;;;;;;5032988;28;20029;-77
2022/08/17 12:14:21;;;;;;;2.70;2.08;;;24.90;61.40;;;;;;5034193;28;20017;-77
2022/08/17 12:17:10;;;;;;;3.72;2.25;;;24.90;61.30;;;;;;5030427;28;20025;-76
2022/08/17 12:19:37;;;;;;;3.08;2.42;;;24.90;61.40;;;;;;5013196;28;20116;-76
2022/08/17 12:22:37;;;;;;;3.53;2.20;;;24.90;61.40;;;;;;5014130;28;20030;-76
2022/08/17 12:25:21;;;;;;;2.75;1.90;;;24.90;61.40;;;;;;5013014;28;20018;-76
2022/08/17 12:27:48;;;;;;;3.42;2.38;;;24.90;61.40;;;;;;5013782;28;20060;-77
2022/08/17 12:30:16;;;;;;;3.38;2.20;;;24.90;61.40;;;;;;5012680;28;20105;-77
2022/08/17 12:32:46;;;;;;;2.78;2.15;;;24.90;61.40;;;;;;5012850;28;20076;-76
2022/08/17 12:35:34;;;;;;;2.08;1.88;;;24.90;61.50;;;;;;5012877;28;20108;-76
2022/08/17 12:38:00;;;;;;;2.72;1.70;;;24.90;61.50;;;;;;5012651;28;20026;-76
2022/08/17 12:40:30;;;;;;;2.83;1.88;;;24.90;61.50;;;;;;5012838;28;20049;-77
2022/08/17 12:43:25;;;;;;;2.20;1.88;;;24.90;61.50;;;;;;5012449;28;20034;-76
2022/08/17 12:45:56;;;;;;;2.45;1.77;;;24.90;61.50;;;;;;5012545;28;20037;-76
2022/08/17 12:48:24;;;;;;;2.80;2.00;;;24.90;61.60;;;;;;5013634;28;20030;-76
2022/08/17 12:50:50;;;;;;;2.10;1.90;;;24.90;61.60;;;;;;5012344;28;20072;-76
2022/08/17 12:53:21;;;;;;;2.15;1.83;;;24.90;61.60;;;;;;5012429;28;20026;-76
2022/08/17 12:55:47;;;;;;;2.35;1.90;;;24.90;61.60;;;;;;5012417;28;20022;-76
2022/08/17 12:58:18;;;;;;;3.50;1.60;;;24.90;61.60;;;;;;5012548;28;20037;-77
2022/08/17 13:00:59;;;;;;;2.22;1.85;;;24.90;61.60;;;;;;5012401;28;20029;-76
2022/08/17 13:03:30;;;;;;;2.28;1.90;;;24.90;61.60;;;;;;5012424;28;20033;-77
2022/08/17 13:06:01;;;;;;;2.53;1.60;;;24.90;61.60;;;;;;5012491;28;20041;-76
2022/08/17 13:08:40;;;;;;;2.40;1.88;;;24.90;61.60;;;;;;5012050;28;20386;-77
2022/08/17 13:11:12;;;;;;;2.22;1.73;;;24.90;61.70;;;;;;5032595;28;20104;-76
2022/08/17 13:13:38;;;;;;;;;;;24.90;61.70;;;;;;5032497;28;20056;-76
2022/08/17 13:16:08;;;;;;;1.83;1.55;;;24.90;61.70;;;;;;5033018;28;19988;-77
2022/08/17 13:19:08;;;;;;;2.15;1.70;;;24.90;61.70;;;;;;5014829;28;20033;-76
2022/08/17 13:21:34;;;;;;;2.42;1.92;;;24.90;61.70;;;;;;5013315;28;20029;-77
2022/08/17 13:24:09;;;;;;;2.22;1.65;;;24.90;61.80;;;;;;5011893;28;20030;-77
2022/08/17 13:26:39;;;;;;;3.30;1.90;;;24.90;61.80;;;;;;5012921;28;20543;-77
2022/08/17 13:29:22;;;;;;;2.85;1.80;;;24.90;61.80;;;;;;5011921;28;20018;-76
2022/08/17 13:31:49;;;;;;;2.33;1.88;;;24.90;61.80;;;;;;5011712;28;20112;-76
2022/08/17 13:34:25;;;;;;;2.28;1.70;;;24.90;61.80;;;;;;5011765;28;20546;-77
2022/08/17 13:36:52;;;;;;;3.13;1.73;;;24.90;61.80;;;;;;5011941;28;20457;-76
2022/08/17 13:39:20;;;;;;;2.58;1.85;;;24.90;61.80;;;;;;5011709;28;20026;-76
2022/08/17 13:41:46;;;;;;;2.17;1.80;;;24.90;61.80;;;;;;5011707;28;20467;-76
2022/08/17 13:44:37;;;;;;;2.75;1.90;;;24.90;61.80;;;;;;5012863;28;20049;-76